Latest Coastal Weather Observations for Ulladulla

IDN60701

Issued at 12:51 am EST Sunday 20 August 2017 (issued every 10 minutes, with the page automatically refreshed every 10 minutes)

About coastal observations | Map of coastal stations | Coastal observations for NSW | Marine services | Other Formats
Station Details ID: 069138 Name: ULLADULLA AWS Lat: -35.36 Lon: 150.48 Height: 35.7 m
Data from the previous 72 hours. | See also: Recent months at Ulladulla
Date/Time
EST
Temp
°C
Wind Pressure Rain since
9am
mm
Weather Cloud Vis
km
Sea
Height
m
Swell
Dir  Spd
kts
Gust
kts
hPa Trend Height
m
Period
s
Dir
20/12:30am 7.8 SW 7 12 1022.8 - 0.0 - - - - - - -
20/12:00am 7.7 SW 8 14 1022.7 - 0.0 - - - - - - -
 
Date/Time
EST
Temp
°C
Wind Pressure Rain since
9am
mm
Weather Cloud Vis
km
Sea
Height
m
Swell
Dir  Spd
kts
Gust
kts
hPa Trend Height
m
Period
s
Dir
19/11:30pm 8.1 SW 7 15 1022.9 - 0.0 - - - - - - -
19/11:00pm 8.0 SW 7 11 1023.0 - 0.0 - - - - - - -
19/10:30pm 8.6 SW 10 15 1023.2 - 0.0 - - - - - - -
19/10:00pm 8.7 SW 10 16 1023.2 - 0.0 - - - - - - -
19/09:30pm 9.1 SW 9 15 1023.1 - 0.0 - - - - - - -
19/09:00pm 10.0 SSW 10 15 1022.9 - 0.0 - - - - - - -
19/08:30pm 10.0 SW 12 22 1022.7 - 0.0 - - - - - - -
19/08:00pm 10.3 SW 11 17 1022.3 - 0.0 - - - - - - -
19/07:30pm 10.7 SW 11 15 1021.9 - 0.0 - - - - - - -
19/07:00pm 12.3 SSW 15 21 1021.5 - 0.0 - - - - - - -
19/06:41pm 12.5 S 22 33 1021.1 - 0.0 - - - - - - -
19/06:30pm 12.4 S 25 30 1020.9 - 0.0 - - - - - - -
19/06:00pm 12.6 S 21 31 1020.4 - 0.0 - - - - - - -
19/05:30pm 12.4 S 25 31 1020.2 - 0.0 - - - - - - -
19/05:00pm 12.5 S 25 31 1019.9 - 0.0 - - - - - - -
19/04:30pm 12.6 S 23 31 1019.5 - 0.0 - - - - - - -
19/04:00pm 12.8 S 22 29 1019.2 - 0.0 - - - - - - -
19/03:30pm 12.8 S 24 32 1018.9 - 0.0 - - - - - - -
19/03:00pm 13.1 S 21 27 1018.7 - 0.0 - - - - - - -
19/02:30pm 12.9 S 23 29 1018.4 - 0.0 - - - - - - -
19/02:00pm 13.5 S 22 29 1018.2 - 0.0 - - - - - - -
19/01:30pm 13.5 S 22 31 1018.1 - 0.0 - - - - - - -
19/01:16pm 13.4 S 18 28 1018.0 - 0.0 - - - - - - -
19/01:00pm 13.4 S 21 27 1018.0 - 0.0 - - - - - - -
19/12:36pm 13.7 SSW 17 29 1018.1 - 0.0 - - - - - - -
19/12:30pm 13.5 SSW 18 28 1018.1 - 0.0 - - - - - - -
19/12:00pm 12.9 S 20 31 1018.2 - 0.0 - - - - - - -
19/11:30am 12.8 SSW 19 32 1018.1 - 0.0 - - - - - - -
19/11:00am 12.8 SSW 18 30 1018.3 - 0.0 - - - - - - -
19/10:30am 12.6 SSW 16 26 1018.4 - 0.0 - - - - - - -
19/10:00am 11.7 SSW 17 30 1017.9 - 0.0 - - - - - - -
19/09:30am 11.5 SSW 15 25 1017.9 - 0.0 - - - - - - -
19/09:00am 10.8 SSW 15 26 1017.7 - 0.0 - - - - - - -
19/08:56am 10.8 SSW 15 26 1017.7 - 0.0 - - - - - - -
19/08:30am 10.5 SW 9 14 1017.4 - 0.0 - - - - - - -
19/08:00am 9.7 SW 8 14 1017.0 - 0.0 - - - - - - -
19/07:30am 8.7 SW 8 13 1016.5 - 0.0 - - - - - - -
19/07:00am 8.0 SW 9 13 1016.2 - 0.0 - - - - - - -
19/06:30am 7.6 SW 6 11 1015.8 - 0.0 - - - - - - -
19/06:00am 7.8 SW 7 11 1015.3 - 0.0 - - - - - - -
19/05:30am 7.4 WSW 5 8 1014.6 - 0.0 - - - - - - -
19/05:00am 7.7 SW 7 11 1014.2 - 0.0 - - - - - - -
19/04:30am 8.0 SW 6 9 1013.9 - 0.0 - - - - - - -
19/04:00am 8.3 SW 8 11 1013.6 - 0.0 - - - - - - -
19/03:30am 8.5 SW 7 11 1013.2 - 0.0 - - - - - - -
19/03:00am 8.8 SW 9 13 1013.2 - 0.0 - - - - - - -
19/02:30am 8.3 SW 7 11 1013.0 - 0.0 - - - - - - -
19/02:00am 7.5 WSW 5 8 1012.8 - 0.0 - - - - - - -
19/01:30am 8.2 W 4 8 1012.3 - 0.0 - - - - - - -
19/01:00am 8.6 WNW 4 7 1011.9 - 0.0 - - - - - - -
19/12:30am 8.9 W 6 11 1011.9 - 0.0 - - - - - - -
19/12:00am 8.9 W 5 9 1012.1 - 0.0 - - - - - - -
 
Date/Time
EST
Temp
°C
Wind Pressure Rain since
9am
mm
Weather Cloud Vis
km
Sea
Height
m
Swell
Dir  Spd
kts
Gust
kts
hPa Trend Height
m
Period
s
Dir
18/11:30pm 9.0 W 4 8 1012.0 - 0.0 - - - - - - -
18/11:00pm 9.1 W 5 8 1011.9 - 0.0 - - - - - - -
18/10:30pm 9.4 W 4 8 1011.8 - 0.0 - - - - - - -
18/10:00pm 9.9 W 6 12 1011.6 - 0.0 - - - - - - -
18/09:30pm 10.6 W 7 11 1011.2 - 0.0 - - - - - - -
18/09:00pm 10.7 WSW 7 12 1011.0 - 0.0 - - - - - - -
18/08:30pm 10.6 W 6 13 1010.6 - 0.0 - - - - - - -
18/08:00pm 10.7 W 6 11 1010.1 - 0.0 - - - - - - -
18/07:30pm 11.0 WNW 8 17 1010.0 - 0.0 - - - - - - -
18/07:00pm 11.3 WNW 6 13 1009.8 - 0.0 - - - - - - -
18/06:30pm 11.8 W 7 12 1009.2 - 0.0 - - - - - - -
18/06:00pm 12.2 WNW 8 15 1008.8 - 0.0 - - - - - - -
18/05:30pm 12.4 WNW 7 12 1008.0 - 0.0 - - - - - - -
18/05:00pm 13.6 WNW 7 13 1007.8 - 0.0 - - - - - - -
18/04:30pm 14.6 WNW 9 18 1007.2 - 0.0 - - - - - - -
18/04:00pm 15.4 WNW 9 19 1006.7 - 0.0 - - - - - - -
18/03:30pm 15.9 WNW 10 20 1006.2 - 0.0 - - - - - - -
18/03:00pm 16.1 W 9 18 1005.7 - 0.0 - - - - - - -
18/02:30pm 16.3 W 13 22 1005.5 - 0.0 - - - - - - -
18/02:00pm 16.3 W 11 21 1005.3 - 0.0 - - - - - - -
18/01:30pm 16.1 WNW 12 25 1005.1 - 0.0 - - - - - - -
18/01:00pm 16.2 W 11 20 1005.1 - 0.0 - - - - - - -
18/12:30pm 15.8 W 13 23 1005.1 - 0.0 - - - - - - -
18/12:00pm 15.8 W 12 24 1005.3 - 0.0 - - - - - - -
18/11:30am 15.3 W 13 26 1005.5 - 0.0 - - - - - - -
18/11:00am 14.7 WNW 12 20 1005.3 - 0.0 - - - - - - -
18/10:44am 14.4 W 14 28 1005.6 - 0.0 - - - - - - -
18/10:30am 14.5 WSW 12 23 1006.0 - 0.0 - - - - - - -
18/10:00am 13.8 WSW 13 24 1005.5 - 0.0 - - - - - - -
18/09:30am 13.6 W 13 25 1005.4 - 0.0 - - - - - - -
18/09:08am 13.2 W 15 28 1005.1 - 0.0 - - - - - - -
18/09:00am 13.1 W 13 27 1005.1 - 0.0 - - - - - - -
18/08:32am 12.5 W 15 29 1004.8 - 0.0 - - - - - - -
18/08:30am 12.5 W 14 24 1004.7 - 0.0 - - - - - - -
18/08:04am 11.9 W 15 30 1004.2 - 0.0 - - - - - - -
18/08:00am 11.9 W 14 28 1004.1 - 0.0 - - - - - - -
18/07:39am 11.6 W 15 27 1004.3 - 0.0 - - - - - - -
18/07:30am 11.4 WSW 13 24 1004.4 - 0.0 - - - - - - -
18/07:00am 11.1 W 12 29 1003.8 - 0.0 - - - - - - -
18/06:30am 11.0 WNW 15 27 1003.7 - 0.0 - - - - - - -
18/06:14am 11.3 WNW 15 33 1003.5 - 0.0 - - - - - - -
18/06:00am 11.2 WNW 13 27 1003.4 - 0.0 - - - - - - -
18/05:30am 11.4 WNW 15 26 1003.4 - 0.0 - - - - - - -
18/05:00am 11.7 WNW 16 35 1003.2 - 0.0 - - - - - - -
18/04:39am 11.6 WNW 15 32 1002.8 - 0.0 - - - - - - -
18/04:30am 11.5 WNW 12 23 1002.9 - 0.0 - - - - - - -
18/04:00am 12.0 WNW 14 31 1003.1 - 0.0 - - - - - - -
18/03:30am 12.0 WNW 15 30 1003.2 - 0.0 - - - - - - -
18/03:28am 12.0 WNW 15 30 1003.2 - 0.0 - - - - - - -
18/03:00am 11.9 WNW 10 21 1003.7 - 0.0 - - - - - - -
18/02:30am 12.1 WNW 10 18 1004.0 - 0.0 - - - - - - -
18/02:00am 12.4 WNW 13 24 1004.3 - 0.0 - - - - - - -
18/01:30am 12.8 WNW 15 29 1004.5 - 0.0 - - - - - - -
18/01:03am 12.9 WNW 15 32 1004.4 - 0.0 - - - - - - -
18/01:00am 12.8 WNW 14 32 1004.3 - 0.0 - - - - - - -
18/12:30am 13.2 WNW 15 28 1004.7 - 0.0 - - - - - - -
18/12:16am 13.3 WNW 15 28 1004.7 - 0.0 - - - - - - -
18/12:00am 13.4 WNW 14 28 1004.6 - 0.0 - - - - - - -
 
Date/Time
EST
Temp
°C
Wind Pressure Rain since
9am
mm
Weather Cloud Vis
km
Sea
Height
m
Swell
Dir  Spd
kts
Gust
kts
hPa Trend Height
m
Period
s
Dir
17/11:30pm 13.8 WNW 13 25 1004.3 - 0.0 - - - - - - -
17/11:00pm 13.6 W 11 28 1004.9 - 0.0 - - - - - - -
17/10:30pm 13.9 WNW 12 24 1005.0 - 0.0 - - - - - - -
17/10:00pm 13.7 NW 13 27 1004.9 - 0.0 - - - - - - -
17/09:37pm 15.3 WNW 15 25 1004.9 - 0.0 - - - - - - -
17/09:30pm 15.0 NW 13 23 1004.7 - 0.0 - - - - - - -
17/09:19pm 15.1 WNW 15 26 1004.8 - 0.0 - - - - - - -
17/09:00pm 15.9 WNW 11 21 1004.7 - 0.0 - - - - - - -
17/08:35pm 16.4 NW 15 26 1004.6 - 0.0 - - - - - - -
17/08:30pm 16.2 NW 12 25 1004.6 - 0.0 - - - - - - -
17/08:00pm 16.4 NW 11 20 1004.2 - 0.0 - - - - - - -
17/07:30pm 16.8 NW 13 21 1004.5 - 0.0 - - - - - - -
17/07:10pm 17.0 NW 15 27 1004.3 - 0.0 - - - - - - -
17/07:00pm 17.0 NW 16 25 1004.2 - 0.0 - - - - - - -
17/06:33pm 17.0 NW 15 27 1003.7 - 0.0 - - - - - - -
17/06:30pm 16.8 NW 13 25 1003.7 - 0.0 - - - - - - -
17/06:02pm 17.1 NW 15 28 1003.5 - 0.0 - - - - - - -
17/06:00pm 17.0 NW 14 22 1003.5 - 0.0 - - - - - - -
17/05:30pm 17.2 NW 13 23 1002.9 - 0.0 - - - - - - -
17/05:10pm 17.6 NW 15 26 1002.7 - 0.0 - - - - - - -
17/05:00pm 17.5 NW 12 23 1002.9 - 0.0 - - - - - - -
17/04:30pm 18.2 WNW 10 21 1002.7 - 0.0 - - - - - - -
17/04:00pm 18.6 NW 16 27 1002.3 - 0.0 - - - - - - -
17/03:30pm 19.0 WNW 15 26 1002.4 - 0.0 - - - - - - -
17/03:00pm 19.2 WNW 16 28 1002.4 - 0.0 - - - - - - -
17/02:30pm 19.2 WNW 18 33 1002.3 - 0.0 - - - - - - -
17/02:00pm 19.4 WNW 19 31 1002.1 - 0.0 - - - - - - -
17/01:30pm 19.2 WNW 16 34 1002.0 - 0.0 - - - - - - -
17/01:00pm 19.5 WNW 19 35 1002.4 - 0.0 - - - - - - -
17/12:30pm 19.2 WNW 18 32 1002.4 - 0.0 - - - - - - -
17/12:04pm 19.1 WNW 17 38 1002.5 - 0.0 - - - - - - -
17/12:00pm 19.1 WNW 15 28 1002.7 - 0.0 - - - - - - -
17/11:30am 19.0 WNW 17 31 1002.7 - 0.0 - - - - - - -
17/11:00am 19.1 WNW 15 29 1003.1 - 0.0 - - - - - - -
17/10:38am 18.7 WNW 15 29 1003.8 - 0.0 - - - - - - -
17/10:30am 18.9 WNW 11 23 1003.8 - 0.0 - - - - - - -
17/10:03am 18.3 WNW 15 28 1004.3 - 0.0 - - - - - - -
17/10:00am 18.1 WNW 13 27 1004.2 - 0.0 - - - - - - -
17/09:30am 17.9 WNW 7 17 1004.9 - 0.0 - - - - - - -
17/09:00am 17.3 WNW 8 25 1005.4 - 0.0 - - - - - - -
17/08:30am 16.6 NNW 6 13 1005.5 - 0.0 - - - - - - -
17/08:00am 16.0 WNW 4 8 1005.3 - 0.0 - - - - - - -
17/07:30am 15.1 WNW 3 9 1005.5 - 0.0 - - - - - - -
17/07:00am 13.8 W 3 9 1005.3 - 0.0 - - - - - - -
17/06:30am 14.0 WNW 5 10 1005.2 - 0.0 - - - - - - -
17/06:00am 14.1 WNW 4 13 1005.0 - 0.0 - - - - - - -
17/05:30am 14.2 W 5 12 1004.6 - 0.0 - - - - - - -
17/05:00am 14.7 WNW 7 16 1004.4 - 0.0 - - - - - - -
17/04:30am 14.9 NNW 6 13 1004.4 - 0.0 - - - - - - -
17/04:00am 14.7 NW 7 19 1004.1 - 0.0 - - - - - - -
17/03:30am 15.0 WNW 11 26 1003.9 - 0.0 - - - - - - -
17/03:00am 15.0 WNW 8 20 1003.7 - 0.0 - - - - - - -
17/02:30am 15.1 NW 11 28 1003.5 - 0.0 - - - - - - -
17/02:00am 15.1 NW 8 17 1004.1 - 0.0 - - - - - - -
17/01:30am 15.4 NW 6 16 1004.7 - 0.0 - - - - - - -
17/01:00am 15.2 SE 5 10 1005.2 - 0.0 - - - - - - -

Other Formats:

Comma delimited format used in spreadsheet applications
http://www.bom.gov.au/fwo/IDN60701/IDN60701.94938.axf

JavaScript Object Notation format (JSON) in row-major order
http://www.bom.gov.au/fwo/IDN60701/IDN60701.94938.json